Airfield :
LOGIN :

Register | Disclaimer

   EN    FR    IT 

 










Legend :    VFR   Marginal VFR   IFR   Intensive IFR   Very Intensive IFR
Visi :
Ceiling :
>= 8 km
>= 3000ft
5 to 8 km
1000 to 3000 ft
1500m to 5 km
500 to 1000 ft
800 to 1500m
200 to 500 ft
< 800m
< 200 ft
Symbols :   Thunderstorms  Fog  Heavy snow  Heavy precipitations  Wind > 20 kt
SIGMETs :     Misc.  Thunderstorms  Icing  Turbulence  Mountain Waves  Volcanic Ashes







- Airport Elevation : 1906 ft
- IATA code : INN


LOWI - Innsbruck

CURRENT METAR :
  • 171420Z 07009KT 040V140 9999 FEW040 M03/M08 Q1026 NOSIG

EXPIRED METARs :
  • 171350Z 05010KT 020V090 9999 FEW040 M03/M08 Q1026 NOSIG
  • 171320Z 06012KT 9999 FEW040 M03/M08 Q1026 R08/CLRD// NOSIG
  • 171250Z 07012KT 040V100 9999 FEW030 SCT070 M03/M08 Q1026 R08/29//95 NOSIG
  • 171220Z 07007KT 050V110 9999 FEW030 SCT070 M03/M08 Q1026 R08/29//95 NOSIG
  • 171150Z 11007KT 070V140 9999 FEW030 SCT060 M03/M08 Q1026 R08/29//95 NOSIG

TAF TAF LOWI
Valid from the 17 at 12:00 until the 18 at 12:00 UTC


171115Z 1712/1812 09005KT 9999 SCT020 BKN050 TXM02/1812Z TNM08/1806Z
TEMPO 1716/1807 7000 -SN FEW010 BKN020
BECMG 1808/1810 FEW040
No reported NOTAMs for that airfield.



MET'MAP, your aeronautical weather chart ! - Copyright ORBIFLY December 2007 - Disclaimer

ORBIFLY MET'MAP TEAM :

Programming & Development : Alexandra Zaïnal
Concept & Development : Baudouin d'Aumeries
Co-Development & Prog : Marc-Olivier Méhu
Technical & hardware support : Manuel Goepfert

Contact : metmap@orbifly.com




SOURCES & CREDITS :

   NOAA